sensor_id;sensor_type;location;lat;lon;timestamp;noise_LAeq;noise_LA_min;noise_LA_max;noise_LA01;noise_LA95
45246;Laerm;31529;51.158;7.354;2022-09-21T00:00:01;59.29;40.00;71.15;;
45246;Laerm;31529;51.158;7.354;2022-09-21T00:00:32;39.61;28.97;43.88;;
45246;Laerm;31529;51.158;7.354;2022-09-21T00:01:08;36.81;24.20;41.19;;
45246;Laerm;31529;51.158;7.354;2022-09-21T00:01:39;37.35;31.19;40.73;;
45246;Laerm;31529;51.158;7.354;2022-09-21T00:02:11;37.46;24.20;40.33;;
45246;Laerm;31529;51.158;7.354;2022-09-21T00:02:43;48.53;34.99;60.74;;
45246;Laerm;31529;51.158;7.354;2022-09-21T00:03:14;63.15;36.75;76.89;;
45246;Laerm;31529;51.158;7.354;2022-09-21T00:03:46;38.16;29.87;42.26;;
45246;Laerm;31529;51.158;7.354;2022-09-21T00:04:17;37.55;27.21;42.05;;
45246;Laerm;31529;51.158;7.354;2022-09-21T00:04:48;37.33;28.62;41.36;;
45246;Laerm;31529;51.158;7.354;2022-09-21T00:05:20;37.00;28.97;40.22;;
45246;Laerm;31529;51.158;7.354;2022-09-21T00:05:51;36.65;28.97;40.83;;
45246;Laerm;31529;51.158;7.354;2022-09-21T00:06:25;36.33;27.21;40.00;;
45246;Laerm;31529;51.158;7.354;2022-09-21T00:06:56;36.58;24.20;40.53;;
45246;Laerm;31529;51.158;7.354;2022-09-21T00:07:27;38.19;31.19;43.12;;
45246;Laerm;31529;51.158;7.354;2022-09-21T00:07:59;38.50;24.20;42.77;;
45246;Laerm;31529;51.158;7.354;2022-09-21T00:08:30;37.11;27.21;42.33;;
45246;Laerm;31529;51.158;7.354;2022-09-21T00:09:03;38.36;24.20;43.34;;
45246;Laerm;31529;51.158;7.354;2022-09-21T00:09:34;39.07;31.98;42.33;;
45246;Laerm;31529;51.158;7.354;2022-09-21T00:10:06;39.12;30.22;42.24;;
45246;Laerm;31529;51.158;7.354;2022-09-21T00:10:37;39.24;31.19;43.74;;
45246;Laerm;31529;51.158;7.354;2022-09-21T00:11:28;39.90;33.74;42.71;;
45246;Laerm;31529;51.158;7.354;2022-09-21T00:12:00;40.66;36.16;42.89;;
45246;Laerm;31529;51.158;7.354;2022-09-21T00:12:32;40.18;35.34;42.59;;
45246;Laerm;31529;51.158;7.354;2022-09-21T00:13:03;39.22;28.97;42.59;;
45246;Laerm;31529;51.158;7.354;2022-09-21T00:13:35;38.54;31.19;42.52;;
45246;Laerm;31529;51.158;7.354;2022-09-21T00:14:11;40.02;34.61;43.44;;
45246;Laerm;31529;51.158;7.354;2022-09-21T00:14:42;41.54;37.82;44.11;;
45246;Laerm;31529;51.158;7.354;2022-09-21T00:15:15;40.33;34.99;43.06;;
45246;Laerm;31529;51.158;7.354;2022-09-21T00:15:47;39.89;32.65;43.49;;
45246;Laerm;31529;51.158;7.354;2022-09-21T00:16:18;38.86;31.19;42.05;;
45246;Laerm;31529;51.158;7.354;2022-09-21T00:16:50;38.30;30.22;41.19;;
45246;Laerm;31529;51.158;7.354;2022-09-21T00:17:22;38.39;31.98;42.33;;
45246;Laerm;31529;51.158;7.354;2022-09-21T00:17:53;42.84;33.74;62.07;;
45246;Laerm;31529;51.158;7.354;2022-09-21T00:18:24;39.57;32.65;42.89;;
45246;Laerm;31529;51.158;7.354;2022-09-21T00:18:55;38.91;33.23;42.77;;
45246;Laerm;31529;51.158;7.354;2022-09-21T00:19:27;40.66;33.74;44.41;;
45246;Laerm;31529;51.158;7.354;2022-09-21T00:19:58;62.19;40.73;74.36;;
45246;Laerm;31529;51.158;7.354;2022-09-21T00:20:31;40.84;32.65;45.69;;
45246;Laerm;31529;51.158;7.354;2022-09-21T00:21:11;58.04;31.98;71.93;;
45246;Laerm;31529;51.158;7.354;2022-09-21T00:21:42;43.04;33.74;52.71;;
45246;Laerm;31529;51.158;7.354;2022-09-21T00:22:14;38.14;28.97;41.19;;
45246;Laerm;31529;51.158;7.354;2022-09-21T00:22:45;37.93;28.97;41.01;;
45246;Laerm;31529;51.158;7.354;2022-09-21T00:23:16;37.68;31.98;41.01;;
45246;Laerm;31529;51.158;7.354;2022-09-21T00:23:47;37.77;28.97;40.92;;
45246;Laerm;31529;51.158;7.354;2022-09-21T00:24:19;37.58;31.19;40.53;;
45246;Laerm;31529;51.158;7.354;2022-09-21T00:24:50;37.43;31.19;40.19;;
45246;Laerm;31529;51.158;7.354;2022-09-21T00:25:21;37.52;30.22;40.43;;
45246;Laerm;31529;51.158;7.354;2022-09-21T00:25:52;37.27;24.20;40.63;;
45246;Laerm;31529;51.158;7.354;2022-09-21T00:26:24;37.23;28.97;40.43;;
45246;Laerm;31529;51.158;7.354;2022-09-21T00:26:56;37.48;30.22;40.33;;
45246;Laerm;31529;51.158;7.354;2022-09-21T00:27:27;38.18;32.65;42.39;;
45246;Laerm;31529;51.158;7.354;2022-09-21T00:28:00;37.69;31.19;41.10;;
45246;Laerm;31529;51.158;7.354;2022-09-21T00:28:31;37.42;27.21;40.53;;
45246;Laerm;31529;51.158;7.354;2022-09-21T00:29:02;36.93;27.21;40.63;;
45246;Laerm;31529;51.158;7.354;2022-09-21T00:29:33;36.89;24.20;40.11;;
45246;Laerm;31529;51.158;7.354;2022-09-21T00:30:06;36.93;27.21;40.53;;
45246;Laerm;31529;51.158;7.354;2022-09-21T00:30:37;37.46;24.20;40.83;;
45246;Laerm;31529;51.158;7.354;2022-09-21T00:31:11;37.60;30.22;41.10;;
45246;Laerm;31529;51.158;7.354;2022-09-21T00:31:42;37.68;31.19;41.28;;
45246;Laerm;31529;51.158;7.354;2022-09-21T00:32:13;38.06;30.22;41.28;;
45246;Laerm;31529;51.158;7.354;2022-09-21T00:32:45;39.12;33.23;42.26;;
45246;Laerm;31529;51.158;7.354;2022-09-21T00:33:16;38.45;31.98;41.83;;
45246;Laerm;31529;51.158;7.354;2022-09-21T00:33:47;37.92;31.98;41.10;;
45246;Laerm;31529;51.158;7.354;2022-09-21T00:34:19;38.37;32.65;41.36;;
45246;Laerm;31529;51.158;7.354;2022-09-21T00:34:51;39.44;34.61;41.98;;
45246;Laerm;31529;51.158;7.354;2022-09-21T00:35:22;39.93;35.96;42.26;;
45246;Laerm;31529;51.158;7.354;2022-09-21T00:35:53;40.19;36.24;42.71;;
45246;Laerm;31529;51.158;7.354;2022-09-21T00:36:25;38.46;31.19;41.36;;
45246;Laerm;31529;51.158;7.354;2022-09-21T00:36:56;39.30;33.74;41.91;;
45246;Laerm;31529;51.158;7.354;2022-09-21T00:37:28;38.12;30.22;41.28;;
45246;Laerm;31529;51.158;7.354;2022-09-21T00:38:00;38.48;33.23;41.52;;
45246;Laerm;31529;51.158;7.354;2022-09-21T00:38:33;64.12;35.66;76.55;;
45246;Laerm;31529;51.158;7.354;2022-09-21T00:39:04;47.81;36.50;59.62;;
45246;Laerm;31529;51.158;7.354;2022-09-21T00:39:35;39.01;34.99;41.83;;
45246;Laerm;31529;51.158;7.354;2022-09-21T00:40:06;38.44;32.65;41.36;;
45246;Laerm;31529;51.158;7.354;2022-09-21T00:40:37;39.02;33.23;42.33;;
45246;Laerm;31529;51.158;7.354;2022-09-21T00:41:09;38.97;33.23;41.60;;
45246;Laerm;31529;51.158;7.354;2022-09-21T00:41:40;37.51;30.22;41.01;;
45246;Laerm;31529;51.158;7.354;2022-09-21T00:42:32;39.46;30.22;49.38;;
45246;Laerm;31529;51.158;7.354;2022-09-21T00:43:14;39.00;31.63;57.10;;
45246;Laerm;31529;51.158;7.354;2022-09-21T00:43:49;39.42;33.74;42.33;;
45246;Laerm;31529;51.158;7.354;2022-09-21T00:44:38;38.41;32.65;41.52;;
45246;Laerm;31529;51.158;7.354;2022-09-21T00:45:11;39.77;34.20;43.74;;
45246;Laerm;31529;51.158;7.354;2022-09-21T00:46:02;38.26;31.98;45.60;;
45246;Laerm;31529;51.158;7.354;2022-09-21T00:46:36;45.18;32.65;56.24;;
45246;Laerm;31529;51.158;7.354;2022-09-21T00:47:12;64.27;36.50;77.54;;
45246;Laerm;31529;51.158;7.354;2022-09-21T00:47:44;37.95;28.97;41.19;;
45246;Laerm;31529;51.158;7.354;2022-09-21T00:48:15;38.29;31.19;41.68;;
45246;Laerm;31529;51.158;7.354;2022-09-21T00:48:47;37.98;30.22;41.10;;
45246;Laerm;31529;51.158;7.354;2022-09-21T00:49:18;39.36;31.19;43.34;;
45246;Laerm;31529;51.158;7.354;2022-09-21T00:49:52;37.06;28.97;41.44;;
45246;Laerm;31529;51.158;7.354;2022-09-21T00:50:25;37.87;31.19;40.83;;
45246;Laerm;31529;51.158;7.354;2022-09-21T00:51:00;37.11;24.20;40.53;;
45246;Laerm;31529;51.158;7.354;2022-09-21T00:51:35;37.45;28.97;42.39;;
45246;Laerm;31529;51.158;7.354;2022-09-21T00:52:07;37.46;28.97;40.83;;
45246;Laerm;31529;51.158;7.354;2022-09-21T00:52:42;37.18;27.21;44.29;;
45246;Laerm;31529;51.158;7.354;2022-09-21T00:53:15;43.00;31.19;51.79;;
45246;Laerm;31529;51.158;7.354;2022-09-21T00:53:51;64.00;38.97;77.70;;
45246;Laerm;31529;51.158;7.354;2022-09-21T00:54:28;37.65;24.20;42.95;;
45246;Laerm;31529;51.158;7.354;2022-09-21T00:55:43;37.04;27.21;40.53;;
45246;Laerm;31529;51.158;7.354;2022-09-21T00:56:17;39.78;33.74;46.07;;
45246;Laerm;31529;51.158;7.354;2022-09-21T00:56:50;61.13;38.18;74.78;;
45246;Laerm;31529;51.158;7.354;2022-09-21T00:57:23;38.54;30.22;42.39;;
45246;Laerm;31529;51.158;7.354;2022-09-21T00:57:59;38.30;31.19;43.18;;
45246;Laerm;31529;51.158;7.354;2022-09-21T00:58:37;42.82;38.00;45.27;;
45246;Laerm;31529;51.158;7.354;2022-09-21T00:59:11;40.86;35.66;44.07;;
45246;Laerm;31529;51.158;7.354;2022-09-21T00:59:44;38.20;31.19;41.52;;
45246;Laerm;31529;51.158;7.354;2022-09-21T01:00:15;37.28;30.22;41.28;;
45246;Laerm;31529;51.158;7.354;2022-09-21T01:00:46;37.40;24.20;40.53;;
45246;Laerm;31529;51.158;7.354;2022-09-21T01:01:18;36.41;5.30;39.51;;
45246;Laerm;31529;51.158;7.354;2022-09-21T01:01:49;36.35;24.20;40.00;;
45246;Laerm;31529;51.158;7.354;2022-09-21T01:02:21;36.52;27.21;39.88;;
45246;Laerm;31529;51.158;7.354;2022-09-21T01:02:53;36.42;27.21;39.64;;
45246;Laerm;31529;51.158;7.354;2022-09-21T01:03:31;36.61;24.20;40.22;;
45246;Laerm;31529;51.158;7.354;2022-09-21T01:04:04;38.61;31.63;42.95;;
45246;Laerm;31529;51.158;7.354;2022-09-21T01:04:37;39.52;31.98;42.46;;
45246;Laerm;31529;51.158;7.354;2022-09-21T01:05:09;39.77;33.74;42.71;;
45246;Laerm;31529;51.158;7.354;2022-09-21T01:05:40;39.07;34.61;41.68;;
45246;Laerm;31529;51.158;7.354;2022-09-21T01:06:12;38.74;34.20;41.68;;
45246;Laerm;31529;51.158;7.354;2022-09-21T01:06:45;38.57;34.20;41.60;;
45246;Laerm;31529;51.158;7.354;2022-09-21T01:07:20;38.76;33.23;41.68;;
45246;Laerm;31529;51.158;7.354;2022-09-21T01:07:53;62.49;36.24;76.26;;
45246;Laerm;31529;51.158;7.354;2022-09-21T01:08:26;43.43;35.96;51.34;;
45246;Laerm;31529;51.158;7.354;2022-09-21T01:08:58;37.89;30.22;41.60;;
45246;Laerm;31529;51.158;7.354;2022-09-21T01:09:29;39.25;33.74;42.12;;
45246;Laerm;31529;51.158;7.354;2022-09-21T01:10:05;40.16;33.23;43.69;;
45246;Laerm;31529;51.158;7.354;2022-09-21T01:11:05;39.90;31.98;44.07;;
45246;Laerm;31529;51.158;7.354;2022-09-21T01:12:58;61.37;35.66;75.41;;
45246;Laerm;31529;51.158;7.354;2022-09-21T01:13:41;38.41;30.22;42.59;;
45246;Laerm;31529;51.158;7.354;2022-09-21T01:16:52;38.47;30.22;42.26;;
45246;Laerm;31529;51.158;7.354;2022-09-21T01:17:44;38.18;30.22;41.10;;
45246;Laerm;31529;51.158;7.354;2022-09-21T01:21:54;37.88;28.97;46.16;;
45246;Laerm;31529;51.158;7.354;2022-09-21T01:23:20;38.47;31.98;41.68;;
45246;Laerm;31529;51.158;7.354;2022-09-21T01:24:18;38.66;31.98;41.44;;
45246;Laerm;31529;51.158;7.354;2022-09-21T01:25:21;37.57;30.84;40.83;;
45246;Laerm;31529;51.158;7.354;2022-09-21T01:26:27;37.40;28.97;40.73;;
45246;Laerm;31529;51.158;7.354;2022-09-21T01:28:05;66.16;36.99;79.64;;
45246;Laerm;31529;51.158;7.354;2022-09-21T01:29:42;38.21;32.65;41.01;;
45246;Laerm;31529;51.158;7.354;2022-09-21T01:30:18;38.14;28.97;41.68;;
45246;Laerm;31529;51.158;7.354;2022-09-21T01:30:52;37.83;30.22;41.44;;
45246;Laerm;31529;51.158;7.354;2022-09-21T01:31:30;38.25;31.98;41.19;;
45246;Laerm;31529;51.158;7.354;2022-09-21T01:32:15;37.78;28.97;40.83;;
45246;Laerm;31529;51.158;7.354;2022-09-21T01:33:03;49.68;30.22;63.90;;
45246;Laerm;31529;51.158;7.354;2022-09-21T01:33:43;71.06;36.50;86.48;;
45246;Laerm;31529;51.158;7.354;2022-09-21T01:34:39;38.37;30.22;45.69;;
45246;Laerm;31529;51.158;7.354;2022-09-21T01:35:22;37.95;30.22;41.01;;
45246;Laerm;31529;51.158;7.354;2022-09-21T01:35:57;39.26;34.20;42.83;;
45246;Laerm;31529;51.158;7.354;2022-09-21T01:36:32;38.92;32.65;42.05;;
45246;Laerm;31529;51.158;7.354;2022-09-21T01:37:10;39.09;34.20;42.52;;
45246;Laerm;31529;51.158;7.354;2022-09-21T01:37:47;42.94;33.23;52.14;;
45246;Laerm;31529;51.158;7.354;2022-09-21T01:38:27;64.55;40.11;77.51;;
45246;Laerm;31529;51.158;7.354;2022-09-21T01:39:06;39.47;33.23;43.84;;
45246;Laerm;31529;51.158;7.354;2022-09-21T01:39:42;39.41;34.99;42.12;;
45246;Laerm;31529;51.158;7.354;2022-09-21T01:40:22;47.27;33.23;59.21;;
45246;Laerm;31529;51.158;7.354;2022-09-21T01:41:00;60.60;38.35;72.97;;
45246;Laerm;31529;51.158;7.354;2022-09-21T01:41:34;38.11;28.97;41.76;;
45246;Laerm;31529;51.158;7.354;2022-09-21T01:42:07;38.08;28.62;41.60;;
45246;Laerm;31529;51.158;7.354;2022-09-21T01:42:39;38.43;32.65;41.76;;
45246;Laerm;31529;51.158;7.354;2022-09-21T01:43:17;61.42;35.96;74.41;;
45246;Laerm;31529;51.158;7.354;2022-09-21T01:43:53;39.29;33.23;42.83;;
45246;Laerm;31529;51.158;7.354;2022-09-21T01:44:28;37.77;30.22;40.83;;
45246;Laerm;31529;51.158;7.354;2022-09-21T01:45:04;38.00;30.22;42.05;;
45246;Laerm;31529;51.158;7.354;2022-09-21T01:45:40;37.56;31.19;40.73;;
45246;Laerm;31529;51.158;7.354;2022-09-21T01:46:17;36.90;27.21;40.53;;
45246;Laerm;31529;51.158;7.354;2022-09-21T01:46:50;37.14;27.21;40.63;;
45246;Laerm;31529;51.158;7.354;2022-09-21T01:47:21;39.11;33.23;42.33;;
45246;Laerm;31529;51.158;7.354;2022-09-21T01:47:55;36.75;24.20;41.36;;
45246;Laerm;31529;51.158;7.354;2022-09-21T01:48:31;37.04;27.21;40.53;;
45246;Laerm;31529;51.158;7.354;2022-09-21T01:49:10;37.17;27.21;40.53;;
45246;Laerm;31529;51.158;7.354;2022-09-21T01:49:46;38.09;31.19;41.68;;
45246;Laerm;31529;51.158;7.354;2022-09-21T01:50:20;40.01;33.74;44.49;;
45246;Laerm;31529;51.158;7.354;2022-09-21T01:50:54;43.49;39.25;45.75;;
45246;Laerm;31529;51.158;7.354;2022-09-21T01:51:27;43.08;38.00;45.78;;
45246;Laerm;31529;51.158;7.354;2022-09-21T01:52:24;40.05;33.23;43.01;;
45246;Laerm;31529;51.158;7.354;2022-09-21T01:53:10;38.66;31.19;41.52;;
45246;Laerm;31529;51.158;7.354;2022-09-21T01:53:53;38.08;31.19;41.68;;
45246;Laerm;31529;51.158;7.354;2022-09-21T01:54:52;38.49;31.98;42.33;;
45246;Laerm;31529;51.158;7.354;2022-09-21T01:55:26;38.08;31.19;40.83;;
45246;Laerm;31529;51.158;7.354;2022-09-21T01:56:16;38.29;30.22;41.36;;
45246;Laerm;31529;51.158;7.354;2022-09-21T01:57:14;38.27;31.19;41.52;;
45246;Laerm;31529;51.158;7.354;2022-09-21T01:57:56;37.98;28.97;41.60;;
45246;Laerm;31529;51.158;7.354;2022-09-21T01:59:33;56.90;34.99;75.25;;
45246;Laerm;31529;51.158;7.354;2022-09-21T02:00:08;38.28;28.97;41.52;;
45246;Laerm;31529;51.158;7.354;2022-09-21T02:00:40;38.81;33.74;42.12;;
45246;Laerm;31529;51.158;7.354;2022-09-21T02:01:17;38.88;28.97;41.44;;
45246;Laerm;31529;51.158;7.354;2022-09-21T02:01:54;39.65;33.74;42.26;;
45246;Laerm;31529;51.158;7.354;2022-09-21T02:02:40;39.25;34.20;42.12;;
45246;Laerm;31529;51.158;7.354;2022-09-21T02:03:23;40.31;33.23;47.66;;
45246;Laerm;31529;51.158;7.354;2022-09-21T02:03:58;63.74;39.25;77.11;;
45246;Laerm;31529;51.158;7.354;2022-09-21T02:04:33;39.87;33.23;44.20;;
45246;Laerm;31529;51.158;7.354;2022-09-21T02:05:05;38.15;31.19;41.10;;
45246;Laerm;31529;51.158;7.354;2022-09-21T02:05:37;38.11;31.98;40.63;;
45246;Laerm;31529;51.158;7.354;2022-09-21T02:06:08;38.31;30.22;41.19;;
45246;Laerm;31529;51.158;7.354;2022-09-21T02:06:43;38.65;33.74;41.68;;
45246;Laerm;31529;51.158;7.354;2022-09-21T02:07:16;39.00;33.74;41.60;;
45246;Laerm;31529;51.158;7.354;2022-09-21T02:07:49;39.26;34.61;41.98;;
45246;Laerm;31529;51.158;7.354;2022-09-21T02:08:22;44.55;35.34;65.05;;
45246;Laerm;31529;51.158;7.354;2022-09-21T02:08:53;39.49;33.85;42.18;;
45246;Laerm;31529;51.158;7.354;2022-09-21T02:09:24;39.08;34.99;41.36;;
45246;Laerm;31529;51.158;7.354;2022-09-21T02:09:55;40.86;35.34;44.95;;
45246;Laerm;31529;51.158;7.354;2022-09-21T02:10:34;64.91;37.62;79.00;;
45246;Laerm;31529;51.158;7.354;2022-09-21T02:11:06;42.58;38.18;48.00;;
45246;Laerm;31529;51.158;7.354;2022-09-21T02:11:38;40.85;35.96;43.79;;
45246;Laerm;31529;51.158;7.354;2022-09-21T02:12:12;41.54;37.21;44.57;;
45246;Laerm;31529;51.158;7.354;2022-09-21T02:12:44;41.78;37.82;44.11;;
45246;Laerm;31529;51.158;7.354;2022-09-21T02:13:17;40.44;36.75;43.18;;
45246;Laerm;31529;51.158;7.354;2022-09-21T02:13:51;42.08;39.11;44.49;;
45246;Laerm;31529;51.158;7.354;2022-09-21T02:14:23;67.01;38.62;82.40;;
45246;Laerm;31529;51.158;7.354;2022-09-21T02:14:55;43.87;37.82;51.97;;
45246;Laerm;31529;51.158;7.354;2022-09-21T02:16:38;59.49;38.18;73.31;;
45246;Laerm;31529;51.158;7.354;2022-09-21T02:17:19;40.14;33.74;44.20;;
45246;Laerm;31529;51.158;7.354;2022-09-21T02:18:08;59.16;34.99;76.14;;
45246;Laerm;31529;51.158;7.354;2022-09-21T02:19:08;39.78;31.19;44.81;;
45246;Laerm;31529;51.158;7.354;2022-09-21T02:20:51;40.49;33.74;44.20;;
45246;Laerm;31529;51.158;7.354;2022-09-21T02:22:16;58.46;38.00;71.13;;
45246;Laerm;31529;51.158;7.354;2022-09-21T02:23:52;38.73;31.19;42.19;;
45246;Laerm;31529;51.158;7.354;2022-09-21T02:24:45;38.72;33.23;41.63;;
45246;Laerm;31529;51.158;7.354;2022-09-21T02:25:27;39.35;33.85;43.23;;
45246;Laerm;31529;51.158;7.354;2022-09-21T02:26:08;41.09;36.99;44.95;;
45246;Laerm;31529;51.158;7.354;2022-09-21T02:26:48;64.52;35.66;80.26;;
45246;Laerm;31529;51.158;7.354;2022-09-21T02:27:49;43.62;33.74;54.23;;
45246;Laerm;31529;51.158;7.354;2022-09-21T02:28:42;41.75;32.65;51.12;;
45246;Laerm;31529;51.158;7.354;2022-09-21T02:29:24;61.83;36.75;76.97;;
45246;Laerm;31529;51.158;7.354;2022-09-21T02:30:52;59.44;36.99;76.07;;
45246;Laerm;31529;51.158;7.354;2022-09-21T02:32:08;59.99;36.24;73.57;;
45246;Laerm;31529;51.158;7.354;2022-09-21T02:33:46;68.53;39.88;83.49;;
45246;Laerm;31529;51.158;7.354;2022-09-21T02:34:38;63.76;41.83;78.29;;
45246;Laerm;31529;51.158;7.354;2022-09-21T02:36:04;41.79;37.62;45.78;;
45246;Laerm;31529;51.158;7.354;2022-09-21T02:36:44;64.23;37.62;78.94;;
45246;Laerm;31529;51.158;7.354;2022-09-21T02:37:22;43.37;36.75;53.05;;
45246;Laerm;31529;51.158;7.354;2022-09-21T02:38:06;39.21;31.98;42.26;;
45246;Laerm;31529;51.158;7.354;2022-09-21T02:38:43;47.16;36.75;61.55;;
45246;Laerm;31529;51.158;7.354;2022-09-21T02:39:21;40.45;36.99;45.17;;
45246;Laerm;31529;51.158;7.354;2022-09-21T02:42:04;62.70;42.65;76.56;;
45246;Laerm;31529;51.158;7.354;2022-09-21T02:42:40;71.13;43.34;84.60;;
45246;Laerm;31529;51.158;7.354;2022-09-21T02:43:20;63.30;38.82;76.96;;
45246;Laerm;31529;51.158;7.354;2022-09-21T02:44:17;41.11;36.50;45.90;;
45246;Laerm;31529;51.158;7.354;2022-09-21T02:44:54;61.60;37.47;76.30;;
45246;Laerm;31529;51.158;7.354;2022-09-21T02:45:37;40.69;36.50;44.65;;
45246;Laerm;31529;51.158;7.354;2022-09-21T02:46:18;63.02;34.99;77.74;;
45246;Laerm;31529;51.158;7.354;2022-09-21T02:46:54;62.52;40.63;77.75;;
45246;Laerm;31529;51.158;7.354;2022-09-21T02:47:40;63.65;36.50;78.04;;
45246;Laerm;31529;51.158;7.354;2022-09-21T02:48:17;41.55;36.99;44.16;;
45246;Laerm;31529;51.158;7.354;2022-09-21T02:48:53;62.46;38.35;77.91;;
45246;Laerm;31529;51.158;7.354;2022-09-21T02:49:34;63.62;42.19;79.21;;
45246;Laerm;31529;51.158;7.354;2022-09-21T02:50:15;66.11;43.74;76.75;;
45246;Laerm;31529;51.158;7.354;2022-09-21T02:50:51;61.81;40.22;75.67;;
45246;Laerm;31529;51.158;7.354;2022-09-21T02:51:49;57.75;36.64;75.66;;
45246;Laerm;31529;51.158;7.354;2022-09-21T02:52:22;70.52;45.10;86.86;;
45246;Laerm;31529;51.158;7.354;2022-09-21T02:52:55;71.69;41.83;87.74;;
45246;Laerm;31529;51.158;7.354;2022-09-21T02:53:30;42.66;39.41;46.48;;
45246;Laerm;31529;51.158;7.354;2022-09-21T02:54:05;39.53;34.99;43.34;;
45246;Laerm;31529;51.158;7.354;2022-09-21T02:54:41;39.61;34.99;42.83;;
45246;Laerm;31529;51.158;7.354;2022-09-21T02:55:15;40.61;34.64;44.92;;
45246;Laerm;31529;51.158;7.354;2022-09-21T02:55:48;65.79;37.82;79.55;;
45246;Laerm;31529;51.158;7.354;2022-09-21T02:56:22;67.80;42.11;83.15;;
45246;Laerm;31529;51.158;7.354;2022-09-21T02:56:54;64.60;42.52;78.07;;
45246;Laerm;31529;51.158;7.354;2022-09-21T02:57:25;64.39;42.39;78.52;;
45246;Laerm;31529;51.158;7.354;2022-09-21T02:57:58;52.21;37.42;67.03;;
45246;Laerm;31529;51.158;7.354;2022-09-21T02:58:37;39.46;35.34;41.76;;
45246;Laerm;31529;51.158;7.354;2022-09-21T02:59:09;39.84;32.65;43.84;;
45246;Laerm;31529;51.158;7.354;2022-09-21T02:59:40;63.65;42.12;74.75;;
45246;Laerm;31529;51.158;7.354;2022-09-21T03:00:14;42.26;38.67;46.55;;
45246;Laerm;31529;51.158;7.354;2022-09-21T03:00:45;59.78;39.38;70.51;;
45246;Laerm;31529;51.158;7.354;2022-09-21T03:01:17;62.05;40.11;74.34;;
45246;Laerm;31529;51.158;7.354;2022-09-21T03:01:50;63.60;40.92;78.43;;
45246;Laerm;31529;51.158;7.354;2022-09-21T03:02:21;66.06;43.34;79.73;;
45246;Laerm;31529;51.158;7.354;2022-09-21T03:02:52;67.99;44.29;82.52;;
45246;Laerm;31529;51.158;7.354;2022-09-21T03:03:24;73.21;51.27;85.13;;
45246;Laerm;31529;51.158;7.354;2022-09-21T03:03:56;67.78;45.03;82.47;;
45246;Laerm;31529;51.158;7.354;2022-09-21T03:04:27;66.78;43.84;76.07;;
45246;Laerm;31529;51.158;7.354;2022-09-21T03:04:58;61.87;42.46;74.71;;
45246;Laerm;31529;51.158;7.354;2022-09-21T03:05:29;45.68;39.64;55.29;;
45246;Laerm;31529;51.158;7.354;2022-09-21T03:06:00;68.54;48.28;76.65;;
45246;Laerm;31529;51.158;7.354;2022-09-21T03:06:31;64.89;43.79;78.80;;
45246;Laerm;31529;51.158;7.354;2022-09-21T03:07:03;41.35;36.99;45.87;;
45246;Laerm;31529;51.158;7.354;2022-09-21T03:07:34;43.81;38.35;50.13;;
45246;Laerm;31529;51.158;7.354;2022-09-21T03:08:05;71.31;42.65;83.85;;
45246;Laerm;31529;51.158;7.354;2022-09-21T03:08:36;60.69;41.36;73.64;;
45246;Laerm;31529;51.158;7.354;2022-09-21T03:09:07;66.76;40.33;78.96;;
45246;Laerm;31529;51.158;7.354;2022-09-21T03:09:39;46.37;40.73;55.30;;
45246;Laerm;31529;51.158;7.354;2022-09-21T03:10:10;69.62;49.82;80.77;;
45246;Laerm;31529;51.158;7.354;2022-09-21T03:10:41;63.70;43.79;75.46;;
45246;Laerm;31529;51.158;7.354;2022-09-21T03:11:16;66.12;44.53;78.88;;
45246;Laerm;31529;51.158;7.354;2022-09-21T03:11:47;62.66;41.28;79.19;;
45246;Laerm;31529;51.158;7.354;2022-09-21T03:12:18;64.45;44.69;78.13;;
45246;Laerm;31529;51.158;7.354;2022-09-21T03:12:50;69.03;43.18;81.57;;
45246;Laerm;31529;51.158;7.354;2022-09-21T03:13:21;44.59;39.11;54.27;;
45246;Laerm;31529;51.158;7.354;2022-09-21T03:13:52;65.88;46.87;75.95;;
45246;Laerm;31529;51.158;7.354;2022-09-21T03:14:23;64.29;38.67;79.55;;
45246;Laerm;31529;51.158;7.354;2022-09-21T03:14:54;45.08;40.63;54.89;;
45246;Laerm;31529;51.158;7.354;2022-09-21T03:15:25;66.72;42.52;80.03;;
45246;Laerm;31529;51.158;7.354;2022-09-21T03:16:02;70.90;51.47;80.41;;
45246;Laerm;31529;51.158;7.354;2022-09-21T03:16:35;69.99;49.15;79.97;;
45246;Laerm;31529;51.158;7.354;2022-09-21T03:17:06;67.33;48.20;81.15;;
45246;Laerm;31529;51.158;7.354;2022-09-21T03:17:37;71.17;44.57;82.66;;
45246;Laerm;31529;51.158;7.354;2022-09-21T03:18:08;45.27;41.52;49.01;;
45246;Laerm;31529;51.158;7.354;2022-09-21T03:18:41;68.58;42.95;80.54;;
45246;Laerm;31529;51.158;7.354;2022-09-21T03:19:13;63.64;43.12;78.36;;
45246;Laerm;31529;51.158;7.354;2022-09-21T03:19:45;66.37;44.11;78.59;;
45246;Laerm;31529;51.158;7.354;2022-09-21T03:20:16;61.51;43.28;73.92;;
45246;Laerm;31529;51.158;7.354;2022-09-21T03:20:47;63.13;42.77;79.68;;
45246;Laerm;31529;51.158;7.354;2022-09-21T03:21:19;71.93;50.20;81.16;;
45246;Laerm;31529;51.158;7.354;2022-09-21T03:21:51;49.35;39.64;62.91;;
45246;Laerm;31529;51.158;7.354;2022-09-21T03:22:24;62.22;38.67;74.96;;
45246;Laerm;31529;51.158;7.354;2022-09-21T03:22:55;41.37;36.86;46.45;;
45246;Laerm;31529;51.158;7.354;2022-09-21T03:23:26;64.11;39.88;79.82;;
45246;Laerm;31529;51.158;7.354;2022-09-21T03:23:57;66.39;44.49;80.72;;
45246;Laerm;31529;51.158;7.354;2022-09-21T03:24:28;66.88;39.88;80.17;;
45246;Laerm;31529;51.158;7.354;2022-09-21T03:25:17;67.79;42.19;79.60;;
45246;Laerm;31529;51.158;7.354;2022-09-21T03:25:49;67.61;43.93;77.52;;
45246;Laerm;31529;51.158;7.354;2022-09-21T03:26:22;61.38;44.61;74.62;;
45246;Laerm;31529;51.158;7.354;2022-09-21T03:26:53;69.29;44.37;81.36;;
45246;Laerm;31529;51.158;7.354;2022-09-21T03:27:24;64.10;43.93;79.35;;
45246;Laerm;31529;51.158;7.354;2022-09-21T03:27:55;68.58;44.69;80.52;;
45246;Laerm;31529;51.158;7.354;2022-09-21T03:28:26;46.88;41.01;58.31;;
45246;Laerm;31529;51.158;7.354;2022-09-21T03:28:58;63.96;42.52;75.58;;
45246;Laerm;31529;51.158;7.354;2022-09-21T03:29:29;71.71;50.30;81.25;;
45246;Laerm;31529;51.158;7.354;2022-09-21T03:30:00;66.13;42.95;79.70;;
45246;Laerm;31529;51.158;7.354;2022-09-21T03:30:31;71.97;44.02;83.94;;
45246;Laerm;31529;51.158;7.354;2022-09-21T03:31:02;57.34;44.24;71.64;;
45246;Laerm;31529;51.158;7.354;2022-09-21T03:31:33;71.07;51.36;80.43;;
45246;Laerm;31529;51.158;7.354;2022-09-21T03:32:04;67.41;44.73;81.43;;
45246;Laerm;31529;51.158;7.354;2022-09-21T03:32:36;71.28;46.53;81.36;;
45246;Laerm;31529;51.158;7.354;2022-09-21T03:33:07;69.65;45.41;79.14;;
45246;Laerm;31529;51.158;7.354;2022-09-21T03:33:38;63.16;47.66;76.76;;
45246;Laerm;31529;51.158;7.354;2022-09-21T03:34:09;70.59;52.89;80.93;;
45246;Laerm;31529;51.158;7.354;2022-09-21T03:34:41;71.42;54.60;81.46;;
45246;Laerm;31529;51.158;7.354;2022-09-21T03:35:12;72.53;54.49;79.07;;
45246;Laerm;31529;51.158;7.354;2022-09-21T03:35:43;68.33;47.12;79.98;;
45246;Laerm;31529;51.158;7.354;2022-09-21T03:36:14;64.76;44.88;78.22;;
45246;Laerm;31529;51.158;7.354;2022-09-21T03:36:45;67.93;46.29;79.18;;
45246;Laerm;31529;51.158;7.354;2022-09-21T03:37:18;70.35;53.27;79.30;;
45246;Laerm;31529;51.158;7.354;2022-09-21T03:37:49;65.58;43.93;78.76;;
45246;Laerm;31529;51.158;7.354;2022-09-21T03:38:20;68.54;49.52;79.46;;